Portada
METAR-TAF:

METAR-TAF

Aeroports :

Kankakee, Illinois, Estats Units d'Amèrica

Greater Kankakee Airport

latitud: 41-04-17N, longitud: 087-50-47W, altitud: 192 m

Observació

L'informe es va fer fa 24 minuts, a les 01:55 UTC
Vent 9 kt del Sud-Est
Temperatura 2°C
Humitat 87%
Pressió 1015 hPa
Visibilitat: 16.1 km
Cel clar

METAR: KIKK 190155Z AUTO 14009KT 10SM CLR 02/00 A2997 RMK AO2 T00191005

Hora: 20:19 (02:19 UTC)


TAF: manca

Observacions i pronòstics meteorològics de més de 4000 aeroports (METAR i TAF).

Les estacions disponibles són els punts grocs i vermells al mapa.

Posi el ratolí al punt desitjat per veure el nom de l'estació.

Feu clic per veure les observacions i els pronòstics meteorològics.

Per canviar el mapa: feu clic els botons verds amb una creu de color negre per apropar; al botó verd amb un guió per allunyar la imatge; o en les fletxes verdes per a mapes adjacents.


METAR-TAF: